CFG732 LDZA-EVRA
Flight info
| Callsign | CFG732 |
|---|---|
| Flight time | 1h 53m |
| Altitude | 35000 |
| Route | KOPRY DCT OLATI DCT XOMBA DCT BABKO DCT BOKSU DCT GUNTA |
| Aircraft | A321/M-SDE3FGHIRWY/LB1 |
Departure
| Time | 2026-04-27 08:21 |
|---|---|
| Airport | Zagreb Franjo Tuđman International Airport (LDZA) |
Arrival
| Time | 2026-04-27 10:14 |
|---|---|
| Airport | Riga International Airport (EVRA) |
| Time | Latitude | Longitude | Altitude | Speed | Heading |
|---|---|---|---|---|---|
| 2026-04-27 08:09 | 45.73509 | 16.06217 | 357 ft | 0 kts | 9° |
| 2026-04-27 08:13 | 45.73499 | 16.06217 | 357 ft | 4 kts | 328° |
| 2026-04-27 08:14 | 45.73481 | 16.06230 | 365 ft | 4 kts | 333° |
| 2026-04-27 08:14 | 45.73458 | 16.06252 | 366 ft | 4 kts | 319° |
| 2026-04-27 08:14 | 45.73453 | 16.06259 | 364 ft | 0 kts | 319° |
| 2026-04-27 08:17 | 45.73459 | 16.06249 | 366 ft | 6 kts | 311° |
| 2026-04-27 08:17 | 45.73485 | 16.06131 | 361 ft | 16 kts | 280° |
| 2026-04-27 08:18 | 45.73451 | 16.05992 | 356 ft | 15 kts | 234° |
| 2026-04-27 08:18 | 45.73377 | 16.05877 | 358 ft | 16 kts | 226° |
| 2026-04-27 08:18 | 45.73309 | 16.05775 | 362 ft | 13 kts | 226° |
| 2026-04-27 08:18 | 45.73248 | 16.05684 | 358 ft | 12 kts | 226° |
| 2026-04-27 08:19 | 45.73195 | 16.05604 | 358 ft | 9 kts | 226° |
| 2026-04-27 08:19 | 45.73159 | 16.05551 | 359 ft | 6 kts | 226° |
| 2026-04-27 08:19 | 45.73134 | 16.05513 | 360 ft | 6 kts | 226° |
| 2026-04-27 08:19 | 45.73094 | 16.05416 | 362 ft | 19 kts | 259° |
| 2026-04-27 08:20 | 45.73142 | 16.05274 | 363 ft | 14 kts | 323° |
| 2026-04-27 08:20 | 45.73222 | 16.05257 | 365 ft | 11 kts | 28° |
| 2026-04-27 08:20 | 45.73296 | 16.05356 | 364 ft | 31 kts | 44° |
| 2026-04-27 08:20 | 45.73620 | 16.05840 | 361 ft | 99 kts | 47° |
| 2026-04-27 08:21 | 45.74213 | 16.06757 | 361 ft | 150 kts | 47° |
| 2026-04-27 08:21 | 45.74898 | 16.07882 | 943 ft | 147 kts | 49° |
| 2026-04-27 08:21 | 45.75585 | 16.08987 | 1541 ft | 151 kts | 48° |
| 2026-04-27 08:21 | 45.76330 | 16.10099 | 2046 ft | 162 kts | 47° |
| 2026-04-27 08:22 | 45.77164 | 16.11340 | 2361 ft | 184 kts | 47° |
| 2026-04-27 08:22 | 45.78100 | 16.12740 | 2651 ft | 205 kts | 47° |
| 2026-04-27 08:22 | 45.79137 | 16.14302 | 2855 ft | 228 kts | 49° |
| 2026-04-27 08:22 | 45.80277 | 16.16033 | 3255 ft | 250 kts | 49° |
| 2026-04-27 08:23 | 45.81499 | 16.17888 | 3917 ft | 261 kts | 48° |
| 2026-04-27 08:23 | 45.82760 | 16.19801 | 4661 ft | 267 kts | 47° |
| 2026-04-27 08:23 | 45.84052 | 16.21765 | 5411 ft | 273 kts | 47° |
| 2026-04-27 08:23 | 45.85366 | 16.23772 | 6098 ft | 279 kts | 46° |
| 2026-04-27 08:24 | 45.86707 | 16.25821 | 6821 ft | 283 kts | 46° |
| 2026-04-27 08:24 | 45.88063 | 16.27896 | 7500 ft | 287 kts | 46° |
| 2026-04-27 08:24 | 45.89434 | 16.29999 | 8233 ft | 290 kts | 47° |
| 2026-04-27 08:25 | 45.91954 | 16.34702 | 9677 ft | 295 kts | 51° |
| 2026-04-27 08:25 | 45.93201 | 16.37068 | 10301 ft | 302 kts | 51° |
| 2026-04-27 08:25 | 45.94486 | 16.39516 | 10779 ft | 310 kts | 51° |
| 2026-04-27 08:25 | 45.95805 | 16.42030 | 11181 ft | 324 kts | 51° |
| 2026-04-27 08:26 | 45.97213 | 16.44711 | 11316 ft | 345 kts | 51° |
| 2026-04-27 08:26 | 45.98701 | 16.47536 | 11447 ft | 364 kts | 51° |
| 2026-04-27 08:26 | 46.00263 | 16.50501 | 11694 ft | 378 kts | 51° |
| 2026-04-27 08:26 | 46.01857 | 16.53542 | 12212 ft | 383 kts | 51° |
| 2026-04-27 08:27 | 46.03459 | 16.56616 | 12789 ft | 386 kts | 51° |
| 2026-04-27 08:27 | 46.05070 | 16.59716 | 13370 ft | 388 kts | 51° |
| 2026-04-27 08:27 | 46.06694 | 16.62845 | 13935 ft | 391 kts | 51° |
| 2026-04-27 08:27 | 46.08329 | 16.65991 | 14444 ft | 394 kts | 51° |
| 2026-04-27 08:28 | 46.09977 | 16.69159 | 14930 ft | 396 kts | 51° |
| 2026-04-27 08:28 | 46.11636 | 16.72346 | 15426 ft | 398 kts | 51° |
| 2026-04-27 08:28 | 46.13285 | 16.75514 | 15883 ft | 401 kts | 51° |
| 2026-04-27 08:28 | 46.14964 | 16.78741 | 16330 ft | 404 kts | 50° |
| 2026-04-27 08:29 | 46.16653 | 16.81990 | 16735 ft | 406 kts | 50° |
| 2026-04-27 08:29 | 46.18348 | 16.85263 | 17145 ft | 409 kts | 50° |
| 2026-04-27 08:29 | 46.20050 | 16.88559 | 17566 ft | 411 kts | 50° |
| 2026-04-27 08:29 | 46.21768 | 16.91870 | 17971 ft | 412 kts | 49° |
| 2026-04-27 08:30 | 46.23722 | 16.94893 | 18367 ft | 411 kts | 39° |
| 2026-04-27 08:30 | 46.25996 | 16.97392 | 18737 ft | 410 kts | 29° |
| 2026-04-27 08:30 | 46.28506 | 16.99326 | 19079 ft | 409 kts | 22° |
| 2026-04-27 08:30 | 46.31058 | 17.01054 | 19429 ft | 411 kts | 22° |
| 2026-04-27 08:31 | 46.33656 | 17.02823 | 19793 ft | 413 kts | 22° |
| 2026-04-27 08:31 | 46.36260 | 17.04606 | 20167 ft | 415 kts | 22° |
| 2026-04-27 08:31 | 46.38880 | 17.06406 | 20537 ft | 418 kts | 22° |
| 2026-04-27 08:31 | 46.41515 | 17.08218 | 20921 ft | 420 kts | 22° |
| 2026-04-27 08:32 | 46.44160 | 17.10038 | 21309 ft | 421 kts | 22° |
| 2026-04-27 08:32 | 46.46814 | 17.11863 | 21690 ft | 423 kts | 22° |
| 2026-04-27 08:32 | 46.49489 | 17.13699 | 22086 ft | 426 kts | 22° |
| 2026-04-27 08:32 | 46.52172 | 17.15541 | 22502 ft | 427 kts | 22° |
| 2026-04-27 08:33 | 46.54860 | 17.17390 | 22896 ft | 429 kts | 22° |
| 2026-04-27 08:33 | 46.57561 | 17.19251 | 23265 ft | 430 kts | 22° |
| 2026-04-27 08:33 | 46.60238 | 17.21100 | 23631 ft | 432 kts | 22° |
| 2026-04-27 08:33 | 46.62959 | 17.22986 | 23968 ft | 434 kts | 22° |
| 2026-04-27 08:34 | 46.65697 | 17.24889 | 24273 ft | 436 kts | 22° |
| 2026-04-27 08:34 | 46.68441 | 17.26792 | 24577 ft | 438 kts | 22° |
| 2026-04-27 08:34 | 46.71195 | 17.28702 | 24890 ft | 439 kts | 22° |
| 2026-04-27 08:34 | 46.73965 | 17.30622 | 25190 ft | 441 kts | 22° |
| 2026-04-27 08:35 | 46.76742 | 17.32547 | 25484 ft | 443 kts | 22° |
| 2026-04-27 08:35 | 46.79532 | 17.34486 | 25777 ft | 444 kts | 22° |
| 2026-04-27 08:35 | 46.82338 | 17.36440 | 26017 ft | 447 kts | 22° |
| 2026-04-27 08:35 | 46.85150 | 17.38402 | 26290 ft | 449 kts | 22° |
| 2026-04-27 08:36 | 46.87973 | 17.40374 | 26552 ft | 451 kts | 22° |
| 2026-04-27 08:36 | 46.90769 | 17.42329 | 26821 ft | 452 kts | 22° |
| 2026-04-27 08:36 | 46.93615 | 17.44325 | 27056 ft | 453 kts | 22° |
| 2026-04-27 08:36 | 46.96461 | 17.46322 | 27294 ft | 455 kts | 22° |
| 2026-04-27 08:37 | 46.99322 | 17.48332 | 27520 ft | 456 kts | 22° |
| 2026-04-27 08:37 | 47.02176 | 17.50389 | 27728 ft | 458 kts | 23° |
| 2026-04-27 08:37 | 47.05023 | 17.52502 | 27944 ft | 459 kts | 24° |
| 2026-04-27 08:37 | 47.07860 | 17.54649 | 28224 ft | 458 kts | 24° |
| 2026-04-27 08:38 | 47.10684 | 17.56807 | 28513 ft | 458 kts | 24° |
| 2026-04-27 08:38 | 47.13507 | 17.58958 | 28795 ft | 457 kts | 24° |
| 2026-04-27 08:38 | 47.16336 | 17.61100 | 29063 ft | 456 kts | 24° |
| 2026-04-27 08:38 | 47.19159 | 17.63225 | 29336 ft | 456 kts | 24° |
| 2026-04-27 08:39 | 47.21986 | 17.65347 | 29612 ft | 455 kts | 24° |
| 2026-04-27 08:39 | 47.24803 | 17.67462 | 29892 ft | 455 kts | 24° |
| 2026-04-27 08:39 | 47.27619 | 17.69579 | 30183 ft | 454 kts | 23° |
| 2026-04-27 08:39 | 47.30394 | 17.71668 | 30427 ft | 453 kts | 23° |
| 2026-04-27 08:40 | 47.33203 | 17.73784 | 30656 ft | 453 kts | 23° |
| 2026-04-27 08:40 | 47.36009 | 17.75902 | 30893 ft | 453 kts | 23° |
| 2026-04-27 08:40 | 47.38812 | 17.78028 | 31130 ft | 452 kts | 24° |
| 2026-04-27 08:40 | 47.41606 | 17.80148 | 31369 ft | 451 kts | 23° |
| 2026-04-27 08:41 | 47.44396 | 17.82266 | 31598 ft | 451 kts | 23° |
| 2026-04-27 08:41 | 47.47198 | 17.84395 | 31833 ft | 450 kts | 23° |
| 2026-04-27 08:41 | 47.49978 | 17.86511 | 32058 ft | 450 kts | 23° |
| 2026-04-27 08:41 | 47.52771 | 17.88638 | 32226 ft | 451 kts | 23° |
| 2026-04-27 08:42 | 47.55568 | 17.90770 | 32419 ft | 451 kts | 23° |
| 2026-04-27 08:42 | 47.58356 | 17.92901 | 32638 ft | 451 kts | 23° |
| 2026-04-27 08:42 | 47.61142 | 17.95031 | 32857 ft | 451 kts | 23° |
| 2026-04-27 08:42 | 47.63927 | 17.97162 | 33083 ft | 450 kts | 23° |
| 2026-04-27 08:43 | 47.66706 | 17.99291 | 33328 ft | 449 kts | 23° |
| 2026-04-27 08:43 | 47.69486 | 18.01424 | 33554 ft | 449 kts | 23° |
| 2026-04-27 08:43 | 47.72255 | 18.03557 | 33776 ft | 448 kts | 23° |
| 2026-04-27 08:43 | 47.75030 | 18.05697 | 34001 ft | 448 kts | 24° |
| 2026-04-27 08:44 | 47.77762 | 18.07788 | 34209 ft | 447 kts | 23° |
| 2026-04-27 08:44 | 47.80554 | 18.09856 | 34400 ft | 446 kts | 22° |
| 2026-04-27 08:44 | 47.83341 | 18.11875 | 34574 ft | 445 kts | 22° |
| 2026-04-27 08:44 | 47.86134 | 18.13885 | 34765 ft | 445 kts | 22° |
| 2026-04-27 08:45 | 47.88921 | 18.15892 | 34946 ft | 444 kts | 22° |
| 2026-04-27 08:45 | 47.91698 | 18.17904 | 35120 ft | 444 kts | 22° |
| 2026-04-27 08:45 | 47.94472 | 18.19928 | 35264 ft | 444 kts | 22° |
| 2026-04-27 08:45 | 47.97244 | 18.21962 | 35306 ft | 444 kts | 22° |
| 2026-04-27 08:46 | 48.02793 | 18.26053 | 35303 ft | 444 kts | 22° |
| 2026-04-27 08:46 | 48.08337 | 18.30148 | 35300 ft | 444 kts | 22° |
| 2026-04-27 08:47 | 48.13880 | 18.34246 | 35305 ft | 444 kts | 22° |
| 2026-04-27 08:47 | 48.19437 | 18.38354 | 35301 ft | 444 kts | 22° |
| 2026-04-27 08:48 | 48.24947 | 18.42439 | 35304 ft | 445 kts | 22° |
| 2026-04-27 08:48 | 48.30493 | 18.46573 | 35326 ft | 445 kts | 22° |
| 2026-04-27 08:49 | 48.36031 | 18.50715 | 35319 ft | 445 kts | 22° |
| 2026-04-27 08:49 | 48.41579 | 18.54871 | 35319 ft | 445 kts | 22° |
| 2026-04-27 08:50 | 48.47124 | 18.59029 | 35332 ft | 445 kts | 22° |
| 2026-04-27 08:50 | 48.52673 | 18.63209 | 35326 ft | 445 kts | 22° |
| 2026-04-27 08:51 | 48.58216 | 18.67387 | 35318 ft | 445 kts | 22° |
| 2026-04-27 08:51 | 48.63770 | 18.71585 | 35316 ft | 446 kts | 22° |
| 2026-04-27 08:52 | 48.69280 | 18.75756 | 35322 ft | 446 kts | 22° |
| 2026-04-27 08:52 | 48.74828 | 18.79968 | 35315 ft | 446 kts | 22° |
| 2026-04-27 08:53 | 48.80379 | 18.84194 | 35299 ft | 446 kts | 22° |
| 2026-04-27 08:53 | 48.85914 | 18.88420 | 35315 ft | 445 kts | 22° |
| 2026-04-27 08:54 | 48.91453 | 18.92661 | 35302 ft | 445 kts | 22° |
| 2026-04-27 08:54 | 48.96990 | 18.96915 | 35288 ft | 446 kts | 22° |
| 2026-04-27 08:55 | 49.02531 | 19.01183 | 35278 ft | 446 kts | 22° |
| 2026-04-27 08:55 | 49.08058 | 19.05445 | 35288 ft | 445 kts | 22° |
| 2026-04-27 08:56 | 49.13597 | 19.09709 | 35274 ft | 446 kts | 22° |
| 2026-04-27 08:56 | 49.19125 | 19.13987 | 35266 ft | 446 kts | 22° |
| 2026-04-27 08:57 | 49.26490 | 19.19722 | 35284 ft | 446 kts | 22° |
| 2026-04-27 08:58 | 49.32018 | 19.24040 | 35277 ft | 446 kts | 22° |
| 2026-04-27 08:58 | 49.37552 | 19.28360 | 35267 ft | 446 kts | 22° |
| 2026-04-27 08:59 | 49.43093 | 19.32688 | 35267 ft | 447 kts | 22° |
| 2026-04-27 08:59 | 49.48625 | 19.37037 | 35267 ft | 447 kts | 22° |
| 2026-04-27 09:00 | 49.54162 | 19.41404 | 35264 ft | 447 kts | 22° |
| 2026-04-27 09:00 | 49.59708 | 19.45785 | 35256 ft | 448 kts | 22° |
| 2026-04-27 09:01 | 49.65300 | 19.50019 | 35253 ft | 447 kts | 20° |
| 2026-04-27 09:01 | 49.71001 | 19.53828 | 35271 ft | 446 kts | 18° |
| 2026-04-27 09:02 | 49.76733 | 19.57583 | 35267 ft | 446 kts | 19° |
| 2026-04-27 09:02 | 49.82426 | 19.61439 | 35265 ft | 447 kts | 19° |
| 2026-04-27 09:03 | 49.88074 | 19.65357 | 35267 ft | 447 kts | 19° |
| 2026-04-27 09:03 | 49.93743 | 19.69301 | 35299 ft | 446 kts | 19° |
| 2026-04-27 09:04 | 49.99412 | 19.73232 | 35298 ft | 446 kts | 19° |
| 2026-04-27 09:04 | 50.05084 | 19.77165 | 35289 ft | 446 kts | 19° |
| 2026-04-27 09:05 | 50.10756 | 19.81112 | 35321 ft | 446 kts | 19° |
| 2026-04-27 09:05 | 50.16413 | 19.85062 | 35308 ft | 446 kts | 19° |
| 2026-04-27 09:06 | 50.22068 | 19.89015 | 35294 ft | 445 kts | 19° |
| 2026-04-27 09:06 | 50.27720 | 19.92978 | 35285 ft | 445 kts | 19° |
| 2026-04-27 09:07 | 50.33369 | 19.96944 | 35300 ft | 445 kts | 19° |
| 2026-04-27 09:07 | 50.39014 | 20.00918 | 35284 ft | 444 kts | 19° |
| 2026-04-27 09:08 | 50.44645 | 20.04900 | 35273 ft | 444 kts | 19° |
| 2026-04-27 09:08 | 50.50233 | 20.08873 | 35271 ft | 443 kts | 19° |
| 2026-04-27 09:09 | 50.55858 | 20.12876 | 35284 ft | 443 kts | 19° |
| 2026-04-27 09:09 | 50.61486 | 20.16879 | 35291 ft | 443 kts | 19° |
| 2026-04-27 09:10 | 50.67108 | 20.20898 | 35271 ft | 444 kts | 19° |
| 2026-04-27 09:10 | 50.72726 | 20.24929 | 35262 ft | 443 kts | 19° |
| 2026-04-27 09:11 | 50.78343 | 20.28963 | 35279 ft | 443 kts | 19° |
| 2026-04-27 09:11 | 50.83950 | 20.32999 | 35269 ft | 443 kts | 19° |
| 2026-04-27 09:12 | 50.89568 | 20.37051 | 35266 ft | 443 kts | 19° |
| 2026-04-27 09:12 | 50.95177 | 20.41108 | 35264 ft | 443 kts | 19° |
| 2026-04-27 09:13 | 51.00789 | 20.45172 | 35277 ft | 443 kts | 19° |
| 2026-04-27 09:13 | 51.06393 | 20.49256 | 35267 ft | 443 kts | 19° |
| 2026-04-27 09:14 | 51.11999 | 20.53348 | 35264 ft | 443 kts | 19° |
| 2026-04-27 09:14 | 51.17598 | 20.57442 | 35262 ft | 443 kts | 19° |
| 2026-04-27 09:15 | 51.23200 | 20.61551 | 35273 ft | 443 kts | 19° |
| 2026-04-27 09:15 | 51.28795 | 20.65671 | 35265 ft | 443 kts | 19° |
| 2026-04-27 09:16 | 51.34352 | 20.69777 | 35255 ft | 442 kts | 19° |
| 2026-04-27 09:16 | 51.39940 | 20.73914 | 35278 ft | 443 kts | 19° |
| 2026-04-27 09:17 | 51.45567 | 20.78081 | 35269 ft | 443 kts | 19° |
| 2026-04-27 09:17 | 51.48397 | 20.80180 | 35266 ft | 443 kts | 19° |
| 2026-04-27 09:18 | 51.53959 | 20.84325 | 35259 ft | 443 kts | 19° |
| 2026-04-27 09:18 | 51.59559 | 20.88511 | 35256 ft | 443 kts | 19° |
| 2026-04-27 09:19 | 51.65162 | 20.92706 | 35251 ft | 443 kts | 19° |
| 2026-04-27 09:19 | 51.70750 | 20.96904 | 35242 ft | 443 kts | 20° |
| 2026-04-27 09:20 | 51.76347 | 21.01117 | 35241 ft | 444 kts | 19° |
| 2026-04-27 09:20 | 51.81941 | 21.05339 | 35241 ft | 444 kts | 20° |
| 2026-04-27 09:21 | 51.87538 | 21.09588 | 35256 ft | 443 kts | 20° |
| 2026-04-27 09:21 | 51.93130 | 21.13831 | 35244 ft | 444 kts | 20° |
| 2026-04-27 09:22 | 51.98693 | 21.18060 | 35243 ft | 444 kts | 20° |
| 2026-04-27 09:22 | 52.04291 | 21.22327 | 35235 ft | 444 kts | 20° |
| 2026-04-27 09:23 | 52.09885 | 21.26606 | 35259 ft | 444 kts | 20° |
| 2026-04-27 09:23 | 52.15480 | 21.30897 | 35247 ft | 444 kts | 20° |
| 2026-04-27 09:24 | 52.21025 | 21.35170 | 35236 ft | 444 kts | 20° |
| 2026-04-27 09:24 | 52.26599 | 21.39489 | 35230 ft | 444 kts | 20° |
| 2026-04-27 09:25 | 52.32180 | 21.43801 | 35247 ft | 443 kts | 20° |
| 2026-04-27 09:25 | 52.37755 | 21.48131 | 35228 ft | 443 kts | 20° |
| 2026-04-27 09:26 | 52.43325 | 21.52465 | 35212 ft | 443 kts | 20° |
| 2026-04-27 09:26 | 52.48892 | 21.56808 | 35213 ft | 443 kts | 20° |
| 2026-04-27 09:27 | 52.54457 | 21.61169 | 35224 ft | 443 kts | 20° |
| 2026-04-27 09:27 | 52.60015 | 21.65539 | 35212 ft | 442 kts | 20° |
| 2026-04-27 09:28 | 52.65566 | 21.69917 | 35205 ft | 442 kts | 20° |
| 2026-04-27 09:28 | 52.71117 | 21.74290 | 35203 ft | 442 kts | 20° |
| 2026-04-27 09:29 | 52.76660 | 21.78673 | 35222 ft | 441 kts | 20° |
| 2026-04-27 09:29 | 52.82198 | 21.83066 | 35213 ft | 440 kts | 20° |
| 2026-04-27 09:30 | 52.87718 | 21.87457 | 35203 ft | 440 kts | 20° |
| 2026-04-27 09:30 | 52.93229 | 21.91862 | 35197 ft | 440 kts | 20° |
| 2026-04-27 09:31 | 52.98738 | 21.96279 | 35214 ft | 439 kts | 20° |
| 2026-04-27 09:31 | 53.04192 | 22.00665 | 35195 ft | 437 kts | 20° |
| 2026-04-27 09:32 | 53.09669 | 22.05070 | 35186 ft | 437 kts | 20° |
| 2026-04-27 09:32 | 53.15146 | 22.09479 | 35183 ft | 437 kts | 20° |
| 2026-04-27 09:33 | 53.20620 | 22.13918 | 35203 ft | 437 kts | 20° |
| 2026-04-27 09:33 | 53.26089 | 22.18367 | 35192 ft | 437 kts | 20° |
| 2026-04-27 09:34 | 53.31557 | 22.22820 | 35181 ft | 436 kts | 20° |
| 2026-04-27 09:34 | 53.37018 | 22.27278 | 35176 ft | 436 kts | 20° |
| 2026-04-27 09:35 | 53.42472 | 22.31753 | 35197 ft | 436 kts | 20° |
| 2026-04-27 09:35 | 53.47901 | 22.36217 | 35161 ft | 434 kts | 19° |
| 2026-04-27 09:36 | 53.53303 | 22.40651 | 35158 ft | 434 kts | 19° |
| 2026-04-27 09:36 | 53.58734 | 22.45131 | 35158 ft | 435 kts | 20° |
| 2026-04-27 09:37 | 53.64164 | 22.49639 | 35163 ft | 435 kts | 20° |
| 2026-04-27 09:37 | 53.69577 | 22.54146 | 35156 ft | 431 kts | 19° |
| 2026-04-27 09:38 | 53.74958 | 22.58638 | 35156 ft | 431 kts | 19° |
| 2026-04-27 09:38 | 53.80339 | 22.63121 | 35156 ft | 431 kts | 19° |
| 2026-04-27 09:39 | 53.85720 | 22.67635 | 35152 ft | 431 kts | 19° |
| 2026-04-27 09:39 | 53.91094 | 22.72159 | 35153 ft | 431 kts | 19° |
| 2026-04-27 09:40 | 53.96444 | 22.76667 | 35152 ft | 431 kts | 19° |
| 2026-04-27 09:40 | 54.01828 | 22.81222 | 35152 ft | 431 kts | 20° |
| 2026-04-27 09:41 | 54.06294 | 22.85010 | 35154 ft | 431 kts | 20° |
| 2026-04-27 09:41 | 54.11661 | 22.89563 | 35179 ft | 430 kts | 19° |
| 2026-04-27 09:42 | 54.16994 | 22.94118 | 35146 ft | 427 kts | 19° |
| 2026-04-27 09:42 | 54.22310 | 22.98654 | 35137 ft | 427 kts | 19° |
| 2026-04-27 09:43 | 54.27633 | 23.03216 | 35128 ft | 427 kts | 19° |
| 2026-04-27 09:43 | 54.33118 | 23.06673 | 35124 ft | 414 kts | 5° |
| 2026-04-27 09:44 | 54.38773 | 23.08472 | 35147 ft | 412 kts | 4° |
| 2026-04-27 09:44 | 54.44417 | 23.10282 | 35145 ft | 412 kts | 4° |
| 2026-04-27 09:45 | 54.50055 | 23.12119 | 35130 ft | 413 kts | 4° |
| 2026-04-27 09:45 | 54.52981 | 23.13068 | 35109 ft | 412 kts | 5° |
| 2026-04-27 09:46 | 54.58512 | 23.14852 | 35115 ft | 413 kts | 5° |
| 2026-04-27 09:46 | 54.64164 | 23.16685 | 35143 ft | 413 kts | 4° |
| 2026-04-27 09:47 | 54.69816 | 23.18529 | 35132 ft | 413 kts | 4° |
| 2026-04-27 09:47 | 54.75458 | 23.20373 | 35124 ft | 413 kts | 4° |
| 2026-04-27 09:48 | 54.81103 | 23.22215 | 35122 ft | 413 kts | 4° |
| 2026-04-27 09:48 | 54.86749 | 23.24072 | 35163 ft | 413 kts | 4° |
| 2026-04-27 09:49 | 54.92362 | 23.25923 | 35111 ft | 410 kts | 4° |
| 2026-04-27 09:49 | 54.97963 | 23.27770 | 35109 ft | 410 kts | 4° |
| 2026-04-27 09:50 | 55.03573 | 23.29637 | 35106 ft | 410 kts | 4° |
| 2026-04-27 09:50 | 55.09179 | 23.31500 | 35108 ft | 410 kts | 4° |
| 2026-04-27 09:51 | 55.14788 | 23.33366 | 35117 ft | 408 kts | 5° |
| 2026-04-27 09:51 | 55.20350 | 23.35234 | 35110 ft | 406 kts | 4° |
| 2026-04-27 09:52 | 55.25905 | 23.37104 | 35097 ft | 407 kts | 4° |
| 2026-04-27 09:52 | 55.31469 | 23.38967 | 35098 ft | 407 kts | 4° |
| 2026-04-27 09:53 | 55.36999 | 23.40833 | 35104 ft | 407 kts | 5° |
| 2026-04-27 09:53 | 55.42544 | 23.42719 | 35108 ft | 404 kts | 5° |
| 2026-04-27 09:54 | 55.48059 | 23.44588 | 35102 ft | 403 kts | 4° |
| 2026-04-27 09:54 | 55.53571 | 23.46450 | 35059 ft | 404 kts | 5° |
| 2026-04-27 09:55 | 55.59099 | 23.48332 | 34959 ft | 405 kts | 5° |
| 2026-04-27 09:55 | 55.61859 | 23.49279 | 34722 ft | 404 kts | 4° |
| 2026-04-27 09:55 | 55.67359 | 23.51175 | 33880 ft | 401 kts | 4° |
| 2026-04-27 09:56 | 55.70081 | 23.52146 | 33095 ft | 399 kts | 7° |
| 2026-04-27 09:56 | 55.72700 | 23.53995 | 32134 ft | 413 kts | 18° |
| 2026-04-27 09:56 | 55.75253 | 23.56412 | 31099 ft | 416 kts | 19° |
| 2026-04-27 09:56 | 55.77798 | 23.58872 | 30105 ft | 417 kts | 19° |
| 2026-04-27 09:57 | 55.80344 | 23.61360 | 28905 ft | 418 kts | 19° |
| 2026-04-27 09:57 | 55.82907 | 23.63865 | 27601 ft | 421 kts | 19° |
| 2026-04-27 09:57 | 55.85486 | 23.66382 | 26286 ft | 425 kts | 19° |
| 2026-04-27 09:57 | 55.88089 | 23.68923 | 24931 ft | 429 kts | 20° |
| 2026-04-27 09:58 | 55.90718 | 23.71485 | 23863 ft | 429 kts | 20° |
| 2026-04-27 09:58 | 55.93313 | 23.74029 | 22918 ft | 422 kts | 20° |
| 2026-04-27 09:58 | 55.95864 | 23.76535 | 21956 ft | 416 kts | 20° |
| 2026-04-27 09:58 | 55.98388 | 23.79014 | 21032 ft | 411 kts | 20° |
| 2026-04-27 09:59 | 56.00877 | 23.81450 | 20152 ft | 406 kts | 21° |
| 2026-04-27 09:59 | 56.03347 | 23.83859 | 19282 ft | 402 kts | 21° |
| 2026-04-27 09:59 | 56.05789 | 23.86244 | 18441 ft | 398 kts | 21° |
| 2026-04-27 09:59 | 56.08204 | 23.88615 | 17485 ft | 394 kts | 22° |
| 2026-04-27 10:00 | 56.10601 | 23.90970 | 16558 ft | 391 kts | 22° |
| 2026-04-27 10:00 | 56.12974 | 23.93305 | 15646 ft | 388 kts | 23° |
| 2026-04-27 10:00 | 56.15316 | 23.95619 | 14967 ft | 380 kts | 24° |
| 2026-04-27 10:00 | 56.17594 | 23.97883 | 14413 ft | 368 kts | 24° |
| 2026-04-27 10:01 | 56.19800 | 24.00080 | 13893 ft | 358 kts | 24° |
| 2026-04-27 10:01 | 56.21969 | 24.02232 | 13340 ft | 355 kts | 24° |
| 2026-04-27 10:01 | 56.24124 | 24.04363 | 12834 ft | 353 kts | 24° |
| 2026-04-27 10:01 | 56.26269 | 24.06486 | 12328 ft | 350 kts | 25° |
| 2026-04-27 10:02 | 56.28396 | 24.08596 | 11821 ft | 348 kts | 25° |
| 2026-04-27 10:02 | 56.30497 | 24.10691 | 11369 ft | 341 kts | 25° |
| 2026-04-27 10:02 | 56.32514 | 24.12711 | 11230 ft | 323 kts | 25° |
| 2026-04-27 10:02 | 56.34422 | 24.14627 | 11098 ft | 306 kts | 25° |
| 2026-04-27 10:03 | 56.36233 | 24.16441 | 10967 ft | 290 kts | 25° |
| 2026-04-27 10:03 | 56.37956 | 24.18163 | 10834 ft | 276 kts | 24° |
| 2026-04-27 10:03 | 56.39610 | 24.19816 | 10594 ft | 267 kts | 25° |
| 2026-04-27 10:03 | 56.41222 | 24.21428 | 10348 ft | 264 kts | 25° |
| 2026-04-27 10:04 | 56.42825 | 24.23030 | 10090 ft | 262 kts | 24° |
| 2026-04-27 10:04 | 56.44503 | 24.24146 | 9895 ft | 255 kts | 5° |
| 2026-04-27 10:04 | 56.46262 | 24.24046 | 9754 ft | 253 kts | 351° |
| 2026-04-27 10:04 | 56.48009 | 24.23605 | 9571 ft | 254 kts | 351° |
| 2026-04-27 10:05 | 56.49748 | 24.23156 | 9151 ft | 251 kts | 350° |
| 2026-04-27 10:05 | 56.51380 | 24.22248 | 8743 ft | 249 kts | 331° |
| 2026-04-27 10:05 | 56.52806 | 24.20407 | 8314 ft | 248 kts | 324° |
| 2026-04-27 10:05 | 56.54160 | 24.18545 | 7959 ft | 244 kts | 324° |
| 2026-04-27 10:06 | 56.55482 | 24.16717 | 7814 ft | 226 kts | 324° |
| 2026-04-27 10:06 | 56.56680 | 24.15055 | 7675 ft | 209 kts | 324° |
| 2026-04-27 10:06 | 56.57815 | 24.13484 | 7319 ft | 202 kts | 324° |
| 2026-04-27 10:06 | 56.58928 | 24.11944 | 6894 ft | 200 kts | 324° |
| 2026-04-27 10:07 | 56.60033 | 24.10414 | 6455 ft | 199 kts | 324° |
| 2026-04-27 10:07 | 56.61129 | 24.08896 | 6001 ft | 198 kts | 324° |
| 2026-04-27 10:07 | 56.62227 | 24.07378 | 5679 ft | 198 kts | 324° |
| 2026-04-27 10:07 | 56.63317 | 24.05868 | 5360 ft | 197 kts | 324° |
| 2026-04-27 10:08 | 56.64404 | 24.04358 | 5056 ft | 196 kts | 324° |
| 2026-04-27 10:08 | 56.65487 | 24.02848 | 4727 ft | 195 kts | 324° |
| 2026-04-27 10:08 | 56.66554 | 24.01364 | 4396 ft | 195 kts | 324° |
| 2026-04-27 10:08 | 56.67640 | 23.99850 | 4204 ft | 194 kts | 324° |
| 2026-04-27 10:09 | 56.68715 | 23.98350 | 4093 ft | 195 kts | 324° |
| 2026-04-27 10:09 | 56.69778 | 23.96866 | 4002 ft | 195 kts | 324° |
| 2026-04-27 10:09 | 56.70865 | 23.95351 | 3921 ft | 194 kts | 324° |
| 2026-04-27 10:09 | 56.72026 | 23.94204 | 3755 ft | 193 kts | 344° |
| 2026-04-27 10:10 | 56.73361 | 23.93989 | 3555 ft | 194 kts | 3° |
| 2026-04-27 10:10 | 56.74709 | 23.94215 | 3300 ft | 194 kts | 2° |
| 2026-04-27 10:10 | 56.76074 | 23.94443 | 3022 ft | 195 kts | 2° |
| 2026-04-27 10:10 | 56.77404 | 23.94662 | 2750 ft | 194 kts | 2° |
| 2026-04-27 10:11 | 56.78749 | 23.94882 | 2484 ft | 194 kts | 2° |
| 2026-04-27 10:11 | 56.80092 | 23.95102 | 2204 ft | 194 kts | 2° |
| 2026-04-27 10:11 | 56.81437 | 23.95322 | 1927 ft | 193 kts | 3° |
| 2026-04-27 10:11 | 56.82777 | 23.95542 | 1664 ft | 194 kts | 2° |
| 2026-04-27 10:12 | 56.84095 | 23.95759 | 1405 ft | 185 kts | 2° |
| 2026-04-27 10:12 | 56.85331 | 23.95964 | 1142 ft | 171 kts | 2° |
| 2026-04-27 10:12 | 56.86458 | 23.96163 | 915 ft | 153 kts | 2° |
| 2026-04-27 10:12 | 56.87466 | 23.96338 | 742 ft | 142 kts | 1° |
| 2026-04-27 10:13 | 56.88436 | 23.96489 | 468 ft | 136 kts | 2° |
| 2026-04-27 10:13 | 56.89361 | 23.96641 | 307 ft | 131 kts | 3° |
| 2026-04-27 10:13 | 56.90246 | 23.96776 | 169 ft | 126 kts | 1° |
| 2026-04-27 10:13 | 56.91113 | 23.96934 | 47 ft | 121 kts | 2° |
| 2026-04-27 10:14 | 56.91866 | 23.97025 | 39 ft | 99 kts | 0° |
| 2026-04-27 10:14 | 56.92439 | 23.97107 | 37 ft | 60 kts | 4° |
| 2026-04-27 10:14 | 56.92782 | 23.97152 | 36 ft | 41 kts | 8° |
| 2026-04-27 10:14 | 56.92952 | 23.97257 | 36 ft | 18 kts | 51° |
| 2026-04-27 10:15 | 56.92963 | 23.97346 | 36 ft | 0 kts | 89° |
| 2026-04-27 10:15 | 56.92963 | 23.97370 | 36 ft | 7 kts | 89° |
| 2026-04-27 10:15 | 56.92957 | 23.97493 | 35 ft | 10 kts | 98° |
| 2026-04-27 10:16 | 56.92915 | 23.97590 | 36 ft | 11 kts | 166° |
| 2026-04-27 10:16 | 56.92820 | 23.97589 | 36 ft | 15 kts | 184° |
| 2026-04-27 10:16 | 56.92723 | 23.97577 | 36 ft | 13 kts | 184° |
| 2026-04-27 10:16 | 56.92634 | 23.97571 | 36 ft | 12 kts | 169° |
| 2026-04-27 10:17 | 56.92608 | 23.97646 | 34 ft | 6 kts | 130° |
| 2026-04-27 10:17 | 56.92567 | 23.97658 | 36 ft | 7 kts | 181° |
| 2026-04-27 10:17 | 56.92559 | 23.97658 | 36 ft | 0 kts | 181° |